createdAt,value
2022-10-10T00:01:42.493Z,1.57
2022-10-10T00:04:12.338Z,2.00
2022-10-10T00:06:40.480Z,1.40
2022-10-10T00:09:09.062Z,1.07
2022-10-10T00:11:37.409Z,1.20
2022-10-10T00:14:05.667Z,1.00
2022-10-10T00:16:33.842Z,1.27
2022-10-10T00:19:01.968Z,1.30
2022-10-10T00:21:31.575Z,0.80
2022-10-10T00:24:00.820Z,0.90
2022-10-10T00:26:29.751Z,0.80
2022-10-10T00:28:57.815Z,1.00
2022-10-10T00:31:26.387Z,0.80
2022-10-10T00:33:54.459Z,0.70
2022-10-10T00:36:22.526Z,0.80
2022-10-10T00:38:52.608Z,0.70
2022-10-10T00:41:22.261Z,0.90
2022-10-10T00:44:06.029Z,0.70
2022-10-10T00:46:34.290Z,0.77
2022-10-10T00:49:05.875Z,1.00
2022-10-10T00:51:34.600Z,0.80
2022-10-10T00:54:09.293Z,1.03
2022-10-10T00:56:41.132Z,0.57
2022-10-10T00:59:12.616Z,0.90
2022-10-10T01:01:42.337Z,0.70
2022-10-10T01:04:32.455Z,0.70
2022-10-10T01:07:02.790Z,0.70
2022-10-10T01:09:33.581Z,0.80
2022-10-10T01:12:14.109Z,0.70
2022-10-10T01:14:49.222Z,0.80
2022-10-10T01:17:24.703Z,0.83
2022-10-10T01:20:38.836Z,1.23
2022-10-10T01:23:37.041Z,1.27
2022-10-10T01:26:23.944Z,0.80
2022-10-10T01:29:00.067Z,0.80
2022-10-10T01:31:29.679Z,0.90
2022-10-10T01:34:08.400Z,0.90
2022-10-10T01:36:43.728Z,0.70
2022-10-10T01:39:19.654Z,1.07
2022-10-10T01:41:56.526Z,0.80
2022-10-10T01:44:25.981Z,0.80
2022-10-10T01:46:54.148Z,0.80
2022-10-10T01:49:26.391Z,0.90
2022-10-10T01:52:08.793Z,0.70
2022-10-10T01:54:48.299Z,0.80
2022-10-10T01:57:24.916Z,0.70
2022-10-10T02:00:07.229Z,0.73
2022-10-10T02:02:47.350Z,0.77
2022-10-10T02:05:23.718Z,0.60
2022-10-10T02:07:57.756Z,0.70
2022-10-10T02:10:29.692Z,0.60
2022-10-10T02:12:59.757Z,0.73
2022-10-10T02:15:35.252Z,1.10
2022-10-10T02:18:06.415Z,1.00
2022-10-10T02:20:35.129Z,0.63
2022-10-10T02:23:03.780Z,0.97
2022-10-10T02:25:38.377Z,0.80
2022-10-10T02:28:12.467Z,0.70
2022-10-10T02:30:46.409Z,0.70
2022-10-10T02:33:22.129Z,0.80
2022-10-10T02:35:54.259Z,0.60
2022-10-10T02:38:22.748Z,0.80
2022-10-10T02:40:51.929Z,1.00
2022-10-10T02:43:21.302Z,0.80
2022-10-10T02:45:51.287Z,0.63
2022-10-10T02:48:20.013Z,0.93
2022-10-10T02:50:48.315Z,0.80
2022-10-10T02:53:16.524Z,0.80
2022-10-10T02:55:44.616Z,0.83
2022-10-10T02:58:13.885Z,0.90
2022-10-10T03:00:42.174Z,1.37
2022-10-10T03:03:11.688Z,0.80
2022-10-10T03:05:39.774Z,0.90
2022-10-10T03:08:11.672Z,1.07
2022-10-10T03:10:41.289Z,1.00
2022-10-10T03:13:09.583Z,0.90
2022-10-10T03:15:38.049Z,0.77
2022-10-10T03:18:06.384Z,1.10
2022-10-10T03:20:35.885Z,1.10
2022-10-10T03:23:04.004Z,0.70
2022-10-10T03:25:34.874Z,1.10
2022-10-10T03:28:03.015Z,0.90
2022-10-10T03:30:31.087Z,1.10
2022-10-10T03:32:59.471Z,0.90
2022-10-10T03:35:27.684Z,0.97
2022-10-10T03:37:57.575Z,0.90
2022-10-10T03:40:26.599Z,0.97
2022-10-10T03:42:54.857Z,0.80
2022-10-10T03:45:23.144Z,1.00
2022-10-10T03:47:51.412Z,0.80
2022-10-10T03:50:19.786Z,0.80
2022-10-10T03:52:48.074Z,0.93
2022-10-10T03:55:17.958Z,1.00
2022-10-10T03:57:46.149Z,0.90
2022-10-10T04:00:14.851Z,0.90
2022-10-10T04:02:43.315Z,1.00
2022-10-10T04:05:11.567Z,1.00
2022-10-10T04:07:41.617Z,0.70
2022-10-10T04:10:10.624Z,1.00
2022-10-10T04:12:40.121Z,1.27
2022-10-10T04:15:09.042Z,1.00
2022-10-10T04:17:37.150Z,0.83
2022-10-10T04:20:06.390Z,1.10
2022-10-10T04:22:34.488Z,1.03
2022-10-10T04:25:02.600Z,1.10
2022-10-10T04:27:30.675Z,1.00
2022-10-10T04:30:00.582Z,0.80
2022-10-10T04:32:28.697Z,1.00
2022-10-10T04:34:56.981Z,0.97
2022-10-10T04:37:25.053Z,1.23
2022-10-10T04:39:53.103Z,0.93
2022-10-10T04:42:21.166Z,1.57
2022-10-10T04:44:49.288Z,1.20
2022-10-10T04:47:19.303Z,1.37
2022-10-10T04:49:47.511Z,1.10
2022-10-10T04:52:15.679Z,1.17
2022-10-10T04:54:43.984Z,1.00
2022-10-10T04:57:12.130Z,1.00
2022-10-10T04:59:40.207Z,1.43
2022-10-10T05:02:08.768Z,1.27
2022-10-10T05:04:38.375Z,1.20
2022-10-10T05:07:06.799Z,1.30
2022-10-10T05:09:35.824Z,1.20
2022-10-10T05:12:04.119Z,1.30
2022-10-10T05:14:32.440Z,1.20
2022-10-10T05:17:02.016Z,1.00
2022-10-10T05:19:30.174Z,1.10
2022-10-10T05:21:59.823Z,1.17
2022-10-10T05:24:28.043Z,1.70
2022-10-10T05:26:56.244Z,1.70
2022-10-10T05:29:24.500Z,1.50
2022-10-10T05:31:53.217Z,1.77
2022-10-10T05:34:21.463Z,1.53
2022-10-10T05:36:49.559Z,1.10
2022-10-10T05:39:19.150Z,1.83
2022-10-10T05:41:48.912Z,1.20
2022-10-10T05:44:18.459Z,1.30
2022-10-10T05:46:46.627Z,1.63
2022-10-10T05:49:14.787Z,1.20
2022-10-10T05:51:42.955Z,1.10
2022-10-10T05:54:11.243Z,1.53
2022-10-10T05:56:40.796Z,1.77
2022-10-10T05:59:09.785Z,1.37
2022-10-10T06:01:39.850Z,1.33
2022-10-10T06:04:08.656Z,1.50
2022-10-10T06:06:36.772Z,1.10
2022-10-10T06:09:05.292Z,1.63
2022-10-10T06:11:38.158Z,1.37
2022-10-10T06:14:08.337Z,1.33
2022-10-10T06:16:37.148Z,1.30
2022-10-10T06:19:05.561Z,1.70
2022-10-10T06:21:35.640Z,1.73
2022-10-10T06:24:04.087Z,1.60
2022-10-10T06:26:32.203Z,1.53
2022-10-10T06:29:00.345Z,1.87
2022-10-10T06:31:30.338Z,2.00
2022-10-10T06:33:58.517Z,1.33
2022-10-10T06:36:26.662Z,0.97
2022-10-10T06:39:01.525Z,1.23
2022-10-10T06:41:29.791Z,1.50
2022-10-10T06:44:11.620Z,1.53
2022-10-10T06:46:50.404Z,1.30
2022-10-10T06:49:18.697Z,1.20
2022-10-10T06:51:46.841Z,1.90
2022-10-10T06:54:15.727Z,1.40
2022-10-10T06:56:44.468Z,1.47
2022-10-10T06:59:12.785Z,1.73
2022-10-10T07:01:42.284Z,1.80
2022-10-10T07:04:12.596Z,1.60
2022-10-10T07:06:40.936Z,1.60
2022-10-10T07:09:09.018Z,1.70
2022-10-10T07:11:37.715Z,1.50
2022-10-10T07:14:05.991Z,1.73
2022-10-10T07:16:35.339Z,1.60
2022-10-10T07:19:06.033Z,1.63
2022-10-10T07:21:34.645Z,1.37
2022-10-10T07:24:02.947Z,1.67
2022-10-10T07:26:36.980Z,1.57
2022-10-10T07:29:06.719Z,2.00
2022-10-10T07:31:35.522Z,2.10
2022-10-10T07:34:07.742Z,2.23
2022-10-10T07:36:40.335Z,1.60
2022-10-10T07:39:17.145Z,1.40
2022-10-10T07:41:45.436Z,1.30
2022-10-10T07:44:14.325Z,1.43
2022-10-10T07:46:43.398Z,1.40
2022-10-10T07:49:13.444Z,1.37
2022-10-10T07:51:41.695Z,1.57
2022-10-10T07:54:11.574Z,1.33
2022-10-10T07:56:47.548Z,1.40
2022-10-10T07:59:26.777Z,1.10
2022-10-10T08:01:55.144Z,1.67
2022-10-10T08:04:27.074Z,1.23
2022-10-10T08:06:55.296Z,1.37
2022-10-10T08:09:23.398Z,0.90
2022-10-10T08:11:51.517Z,1.87
2022-10-10T08:14:19.738Z,0.80
2022-10-10T08:16:48.420Z,1.10
2022-10-10T08:19:16.535Z,1.00
2022-10-10T08:21:46.119Z,0.90
2022-10-10T08:24:14.706Z,1.07
2022-10-10T08:26:42.802Z,0.90
2022-10-10T08:29:12.223Z,1.00
2022-10-10T08:31:41.367Z,0.83
2022-10-10T08:34:10.125Z,0.87
2022-10-10T08:36:40.238Z,1.23
2022-10-10T08:39:11.146Z,1.07
2022-10-10T08:41:43.805Z,0.90
2022-10-10T08:44:20.940Z,1.00
2022-10-10T08:46:53.760Z,1.27
2022-10-10T08:49:28.205Z,1.17
2022-10-10T09:01:24.871Z,0.90
2022-10-10T09:03:57.455Z,1.80
2022-10-10T09:06:39.490Z,1.20
2022-10-10T09:09:15.317Z,0.80
2022-10-10T09:11:56.188Z,1.00
2022-10-10T09:14:36.956Z,1.30
2022-10-10T09:17:18.697Z,1.00
2022-10-10T09:20:00.679Z,1.10
2022-10-10T09:22:32.871Z,1.00
2022-10-10T09:25:05.957Z,1.30
2022-10-10T09:27:38.885Z,1.13
2022-10-10T09:30:12.773Z,1.17
2022-10-10T09:32:46.637Z,1.10
2022-10-10T09:35:21.787Z,1.00
2022-10-10T09:37:52.018Z,1.40
2022-10-10T09:40:27.940Z,1.10
2022-10-10T09:42:57.507Z,1.00
2022-10-10T09:45:31.843Z,1.20
2022-10-10T09:48:00.000Z,1.13
2022-10-10T09:50:29.599Z,0.80
2022-10-10T09:52:58.226Z,0.80
2022-10-10T09:55:30.045Z,1.00
2022-10-10T09:58:03.900Z,1.07
2022-10-10T10:00:37.732Z,1.37
2022-10-10T10:03:15.309Z,1.20
2022-10-10T10:05:47.407Z,1.47
2022-10-10T10:08:25.962Z,1.00
2022-10-10T10:10:58.256Z,1.20
2022-10-10T10:13:33.353Z,1.20
2022-10-10T10:16:08.306Z,1.07
2022-10-10T10:18:42.246Z,1.30
2022-10-10T10:21:20.132Z,1.17
2022-10-10T10:23:54.235Z,1.03
2022-10-10T10:26:24.546Z,1.73
2022-10-10T10:28:54.753Z,1.47
2022-10-10T10:31:50.328Z,1.50
2022-10-10T10:34:35.069Z,1.30
2022-10-10T10:37:15.065Z,1.20
2022-10-10T10:39:51.908Z,0.90
2022-10-10T10:42:34.726Z,1.20
2022-10-10T10:45:12.189Z,1.50
2022-10-10T10:47:50.579Z,1.20
2022-10-10T10:50:35.546Z,1.10
2022-10-10T10:53:15.497Z,1.17
2022-10-10T10:55:50.897Z,1.10
2022-10-10T10:59:15.965Z,1.20
2022-10-10T11:01:51.779Z,1.67
2022-10-10T11:05:24.332Z,1.20
2022-10-10T11:07:21.429Z,1.20
2022-10-10T11:09:57.967Z,1.30
2022-10-10T11:12:46.051Z,1.67
2022-10-10T11:15:18.947Z,1.77
2022-10-10T11:17:53.696Z,2.13
2022-10-10T11:20:27.755Z,4.70
2022-10-10T11:23:08.625Z,1.07
2022-10-10T11:25:46.653Z,1.33
2022-10-10T11:28:19.160Z,1.40
2022-10-10T11:30:52.542Z,1.67
2022-10-10T11:33:25.348Z,1.60
2022-10-10T11:35:58.813Z,1.70
2022-10-10T11:38:34.240Z,2.00
2022-10-10T11:41:09.833Z,1.60
2022-10-10T11:43:47.378Z,2.03
2022-10-10T11:46:27.664Z,1.33
2022-10-10T11:49:05.831Z,1.30
2022-10-10T11:51:51.769Z,1.70
2022-10-10T11:54:32.771Z,1.30
2022-10-10T11:57:12.958Z,2.03
2022-10-10T11:59:46.230Z,1.20
2022-10-10T12:02:22.303Z,1.50
2022-10-10T12:04:53.477Z,1.60
2022-10-10T12:07:26.850Z,1.17
2022-10-10T12:09:59.405Z,1.43
2022-10-10T12:12:33.386Z,1.27
2022-10-10T12:15:05.278Z,1.30
2022-10-10T12:17:37.312Z,1.33
2022-10-10T12:20:31.689Z,1.20
2022-10-10T12:23:25.103Z,1.23
2022-10-10T12:25:53.314Z,1.37
2022-10-10T12:28:29.907Z,1.20
2022-10-10T12:31:20.279Z,1.20
2022-10-10T12:34:06.484Z,1.30
2022-10-10T12:37:07.623Z,1.33
2022-10-10T12:39:41.293Z,1.50
2022-10-10T12:42:33.626Z,1.00
2022-10-10T12:45:03.394Z,1.00
2022-10-10T12:48:03.846Z,1.57
2022-10-10T12:50:34.604Z,1.40
2022-10-10T12:53:05.082Z,0.80
2022-10-10T12:55:41.800Z,1.43
2022-10-10T12:58:26.194Z,1.57
2022-10-10T13:01:00.670Z,1.57
2022-10-10T13:03:32.887Z,1.37
2022-10-10T13:06:06.498Z,5.93
2022-10-10T13:08:37.795Z,3.60
2022-10-10T13:11:09.510Z,1.30
2022-10-10T13:13:37.768Z,1.50
2022-10-10T13:16:14.891Z,1.30
2022-10-10T13:18:50.019Z,1.13
2022-10-10T13:21:21.802Z,1.17
2022-10-10T13:26:45.033Z,1.20
2022-10-10T13:29:22.936Z,1.17
2022-10-10T13:31:54.073Z,1.30
2022-10-10T13:34:28.596Z,2.10
2022-10-10T13:36:59.062Z,1.30
2022-10-10T13:39:33.360Z,1.17
2022-10-10T13:42:03.775Z,1.40
2022-10-10T13:44:34.473Z,1.57
2022-10-10T13:47:36.537Z,1.20
2022-10-10T13:50:20.742Z,1.40
2022-10-10T13:52:49.006Z,1.53
2022-10-10T13:55:24.989Z,1.00
2022-10-10T13:57:58.273Z,1.13
2022-10-10T14:00:32.773Z,2.00
2022-10-10T14:03:01.272Z,1.30
2022-10-10T14:05:32.334Z,1.50
2022-10-10T14:08:01.047Z,1.50
2022-10-10T14:10:36.027Z,1.77
2022-10-10T14:13:08.751Z,1.07
2022-10-10T14:15:56.376Z,1.47
2022-10-10T14:18:26.583Z,1.20
2022-10-10T14:20:56.308Z,1.20
2022-10-10T14:23:24.524Z,1.00
2022-10-10T14:25:55.285Z,1.53
2022-10-10T14:28:30.261Z,1.70
2022-10-10T14:30:58.617Z,1.33
2022-10-10T14:33:27.921Z,1.40
2022-10-10T14:35:58.088Z,1.83
2022-10-10T14:38:27.312Z,1.93
2022-10-10T14:40:56.219Z,1.53
2022-10-10T14:43:28.042Z,3.03
2022-10-10T14:45:56.470Z,1.77
2022-10-10T14:48:24.708Z,1.57
2022-10-10T14:50:52.946Z,1.60
2022-10-10T14:53:22.510Z,1.63
2022-10-10T14:55:55.942Z,1.53
2022-10-10T14:58:24.870Z,2.20
2022-10-10T15:00:54.396Z,1.77
2022-10-10T15:03:24.945Z,1.77
2022-10-10T15:05:53.232Z,2.03
2022-10-10T15:08:22.866Z,2.27
2022-10-10T15:10:51.090Z,1.60
2022-10-10T15:13:19.633Z,1.53
2022-10-10T15:15:48.587Z,1.90
2022-10-10T15:18:49.327Z,3.23
2022-10-10T15:21:10.717Z,3.00
2022-10-10T15:23:41.246Z,1.70
2022-10-10T15:26:09.759Z,2.00
2022-10-10T15:28:37.920Z,1.83
2022-10-10T15:31:06.501Z,2.73
2022-10-10T15:33:34.664Z,1.83
2022-10-10T15:36:09.655Z,2.23
2022-10-10T15:38:42.722Z,2.10
2022-10-10T15:41:11.478Z,2.50
2022-10-10T15:43:45.326Z,2.90
2022-10-10T15:46:14.060Z,2.90
2022-10-10T15:48:42.120Z,1.83
2022-10-10T15:51:10.671Z,2.10
2022-10-10T15:53:40.307Z,2.63
2022-10-10T15:56:10.476Z,1.93
2022-10-10T15:58:40.362Z,2.50
2022-10-10T16:01:13.611Z,2.47
2022-10-10T16:03:42.079Z,1.53
2022-10-10T16:06:10.566Z,1.93
2022-10-10T16:08:40.935Z,1.70
2022-10-10T16:11:14.844Z,1.90
2022-10-10T16:13:51.217Z,2.87
2022-10-10T16:16:20.416Z,2.30
2022-10-10T16:18:49.217Z,2.30
2022-10-10T16:21:19.623Z,2.50
2022-10-10T16:23:54.298Z,2.03
2022-10-10T16:26:29.235Z,3.40
2022-10-10T16:28:58.160Z,2.20
2022-10-10T16:31:29.022Z,1.87
2022-10-10T16:33:58.336Z,2.50
2022-10-10T16:36:28.734Z,2.53
2022-10-10T16:38:59.667Z,1.90
2022-10-10T16:41:46.996Z,3.80
2022-10-10T16:44:16.598Z,3.20
2022-10-10T16:46:45.397Z,1.87
2022-10-10T16:49:16.460Z,1.93
2022-10-10T16:51:44.972Z,1.93
2022-10-10T16:54:14.663Z,2.50
2022-10-10T16:56:44.353Z,2.00
2022-10-10T16:59:12.558Z,2.43
2022-10-10T17:01:41.295Z,2.37
2022-10-10T17:04:11.164Z,2.20
2022-10-10T17:06:39.431Z,2.42
2022-10-10T17:09:10.064Z,2.80
2022-10-10T17:11:39.599Z,3.60
2022-10-10T17:14:09.201Z,3.83
2022-10-10T17:19:25.815Z,3.60
2022-10-10T17:21:54.517Z,3.83
2022-10-10T17:24:22.672Z,4.77
2022-10-10T17:26:52.740Z,5.00
2022-10-10T17:29:20.948Z,4.00
2022-10-10T17:31:49.661Z,3.80
2022-10-10T17:34:18.713Z,4.40
2022-10-10T17:36:47.827Z,4.50
2022-10-10T17:39:16.066Z,3.60
2022-10-10T17:41:45.985Z,3.73
2022-10-10T17:44:15.709Z,3.57
2022-10-10T17:46:45.773Z,4.33
2022-10-10T17:49:15.314Z,3.53
2022-10-10T17:51:44.279Z,3.43
2022-10-10T17:54:13.600Z,2.80
2022-10-10T17:56:46.271Z,3.70
2022-10-10T17:59:18.121Z,3.17
2022-10-10T18:01:50.610Z,2.87
2022-10-10T18:04:19.541Z,2.47
2022-10-10T18:06:47.911Z,2.90
2022-10-10T18:09:17.025Z,1.93
2022-10-10T18:11:45.920Z,2.63
2022-10-10T18:14:14.155Z,1.87
2022-10-10T18:16:45.710Z,1.60
2022-10-10T18:19:14.137Z,1.60
2022-10-10T18:21:42.376Z,1.00
2022-10-10T18:24:10.818Z,1.60
2022-10-10T18:26:39.368Z,2.40
2022-10-10T18:29:07.646Z,1.73
2022-10-10T18:31:38.304Z,1.83
2022-10-10T18:34:08.648Z,1.50
2022-10-10T18:36:38.714Z,1.60
2022-10-10T18:39:09.133Z,1.20
2022-10-10T18:41:37.634Z,0.80
2022-10-10T18:44:09.227Z,0.40
2022-10-10T18:46:37.919Z,0.63
2022-10-10T18:49:09.815Z,0.67
2022-10-10T18:51:39.853Z,0.50
2022-10-10T18:54:09.352Z,0.73
2022-10-10T18:56:39.693Z,0.80
2022-10-10T18:59:12.637Z,0.50
2022-10-10T19:01:40.946Z,1.30
2022-10-10T19:04:11.236Z,0.60
2022-10-10T19:06:41.134Z,0.70
2022-10-10T19:09:12.049Z,1.63
2022-10-10T19:11:41.853Z,0.70
2022-10-10T19:14:12.115Z,1.00
2022-10-10T19:16:41.666Z,1.07
2022-10-10T19:19:14.165Z,0.80
2022-10-10T19:21:42.306Z,0.90
2022-10-10T19:24:13.606Z,0.77
2022-10-10T19:26:43.688Z,0.77
2022-10-10T19:29:13.601Z,1.33
2022-10-10T19:31:42.374Z,0.83
2022-10-10T19:34:11.931Z,0.80
2022-10-10T19:36:42.307Z,1.00
2022-10-10T19:39:10.566Z,1.30
2022-10-10T19:41:38.807Z,1.13
2022-10-10T19:44:07.049Z,1.33
2022-10-10T19:46:37.477Z,0.97
2022-10-10T19:49:06.554Z,1.10
2022-10-10T19:51:36.129Z,1.00
2022-10-10T19:54:04.414Z,1.07
2022-10-10T19:56:32.920Z,1.70
2022-10-10T19:59:04.531Z,1.13
2022-10-10T20:01:33.501Z,1.87
2022-10-10T20:04:02.004Z,1.53
2022-10-10T20:06:30.240Z,1.30
2022-10-10T20:08:59.891Z,1.07
2022-10-10T20:11:28.006Z,1.00
2022-10-10T20:13:57.623Z,1.80
2022-10-10T20:16:27.372Z,1.80
2022-10-10T20:18:57.076Z,1.00
2022-10-10T20:21:29.334Z,1.23
2022-10-10T20:23:59.630Z,0.90
2022-10-10T20:26:28.000Z,1.30
2022-10-10T20:28:57.547Z,1.33
2022-10-10T20:31:27.858Z,1.30
2022-10-10T20:33:58.354Z,1.27
2022-10-10T20:36:27.003Z,1.00
2022-10-10T20:38:56.256Z,1.83
2022-10-10T20:41:27.923Z,1.60
2022-10-10T20:43:59.133Z,1.43
2022-10-10T20:46:29.100Z,1.30
2022-10-10T20:48:58.253Z,1.83
2022-10-10T20:51:27.448Z,1.37
2022-10-10T20:53:58.046Z,1.20
2022-10-10T20:56:28.316Z,1.90
2022-10-10T20:58:56.591Z,2.07
2022-10-10T21:01:28.385Z,1.30
2022-10-10T21:03:57.158Z,1.70
2022-10-10T21:06:27.554Z,1.40
2022-10-10T21:08:57.160Z,1.57
2022-10-10T21:11:25.481Z,1.10
2022-10-10T21:13:57.370Z,1.20
2022-10-10T21:16:27.807Z,1.30
2022-10-10T21:18:58.416Z,2.20
2022-10-10T21:21:28.286Z,1.17
2022-10-10T21:23:57.020Z,1.80
2022-10-10T21:26:28.742Z,1.40
2022-10-10T21:29:00.761Z,1.80
2022-10-10T21:31:30.301Z,1.73
2022-10-10T21:34:00.353Z,2.07
2022-10-10T21:36:28.656Z,1.57
2022-10-10T21:38:59.121Z,1.13
2022-10-10T21:41:27.263Z,1.93
2022-10-10T21:43:59.647Z,1.40
2022-10-10T21:46:33.560Z,1.77
2022-10-10T21:49:06.779Z,1.60
2022-10-10T21:51:37.847Z,1.67
2022-10-10T21:54:06.928Z,1.50
2022-10-10T21:56:35.178Z,2.30
2022-10-10T21:59:05.169Z,1.67
2022-10-10T22:01:37.830Z,1.13
2022-10-10T22:04:07.871Z,1.50
2022-10-10T22:06:37.056Z,1.30
2022-10-10T22:09:06.576Z,1.70
2022-10-10T22:11:36.069Z,1.20
2022-10-10T22:14:07.103Z,1.83
2022-10-10T22:16:35.982Z,1.40
2022-10-10T22:19:05.080Z,2.03
2022-10-10T22:21:34.966Z,2.33
2022-10-10T22:24:05.893Z,1.90
2022-10-10T22:26:35.213Z,2.23
2022-10-10T22:29:03.346Z,1.73
2022-10-10T22:31:35.581Z,1.70
2022-10-10T22:34:03.731Z,1.20
2022-10-10T22:36:32.085Z,1.40
2022-10-10T22:39:00.676Z,1.27
2022-10-10T22:41:29.338Z,1.30
2022-10-10T22:43:57.407Z,1.20
2022-10-10T22:46:26.366Z,1.60
2022-10-10T22:48:56.197Z,1.63
2022-10-10T22:51:25.610Z,1.30
2022-10-10T22:53:53.687Z,1.90
2022-10-10T22:56:22.739Z,1.80
2022-10-10T22:58:52.114Z,1.23
2022-10-10T23:01:22.626Z,1.80
2022-10-10T23:03:51.063Z,1.40
2022-10-10T23:06:20.529Z,1.20
2022-10-10T23:08:49.116Z,1.20
2022-10-10T23:11:17.384Z,1.57
2022-10-10T23:13:45.939Z,1.10
2022-10-10T23:16:14.047Z,1.50
2022-10-10T23:18:42.132Z,0.97
2022-10-10T23:21:10.176Z,1.33
2022-10-10T23:23:40.346Z,1.13
2022-10-10T23:26:10.093Z,1.23
2022-10-10T23:28:39.549Z,1.30
2022-10-10T23:31:10.779Z,1.10
2022-10-10T23:33:39.379Z,1.30
2022-10-10T23:36:11.404Z,1.30
2022-10-10T23:38:41.720Z,1.33
2022-10-10T23:41:10.681Z,1.43
2022-10-10T23:43:39.013Z,1.80
2022-10-10T23:46:07.899Z,1.93
2022-10-10T23:48:36.845Z,1.67
2022-10-10T23:51:05.609Z,1.40
2022-10-10T23:53:34.707Z,1.83
2022-10-10T23:56:04.742Z,2.33
2022-10-10T23:58:33.095Z,1.77
